sensor_id;sensor_type;location;lat;lon;timestamp;P1;durP1;ratioP1;P2;durP2;ratioP2
17997;SDS011;9124;48.144;17.098;2022-11-14T00:03:17;77.88;;;30.08;;
17997;SDS011;9124;48.144;17.098;2022-11-14T00:07:12;80.32;;;28.17;;
17997;SDS011;9124;48.144;17.098;2022-11-14T00:11:08;71.28;;;28.45;;
17997;SDS011;9124;48.144;17.098;2022-11-14T00:15:03;133.10;;;32.33;;
17997;SDS011;9124;48.144;17.098;2022-11-14T00:18:58;75.30;;;29.42;;
17997;SDS011;9124;48.144;17.098;2022-11-14T00:22:53;79.28;;;27.67;;
17997;SDS011;9124;48.144;17.098;2022-11-14T00:26:48;83.65;;;27.45;;
17997;SDS011;9124;48.144;17.098;2022-11-14T00:30:46;57.38;;;25.30;;
17997;SDS011;9124;48.144;17.098;2022-11-14T00:34:43;74.85;;;24.63;;
17997;SDS011;9124;48.144;17.098;2022-11-14T00:38:37;84.15;;;24.92;;
17997;SDS011;9124;48.144;17.098;2022-11-14T00:42:32;93.93;;;24.00;;
17997;SDS011;9124;48.144;17.098;2022-11-14T00:46:27;80.60;;;26.27;;
17997;SDS011;9124;48.144;17.098;2022-11-14T00:50:22;75.90;;;24.30;;
17997;SDS011;9124;48.144;17.098;2022-11-14T00:54:16;88.25;;;24.45;;
17997;SDS011;9124;48.144;17.098;2022-11-14T00:58:12;93.97;;;26.55;;
17997;SDS011;9124;48.144;17.098;2022-11-14T01:02:07;49.00;;;25.40;;
17997;SDS011;9124;48.144;17.098;2022-11-14T01:06:03;91.47;;;24.63;;
17997;SDS011;9124;48.144;17.098;2022-11-14T01:10:00;56.75;;;26.30;;
17997;SDS011;9124;48.144;17.098;2022-11-14T01:13:55;58.50;;;25.25;;
17997;SDS011;9124;48.144;17.098;2022-11-14T01:17:50;63.88;;;26.13;;
17997;SDS011;9124;48.144;17.098;2022-11-14T01:21:45;56.40;;;27.63;;
17997;SDS011;9124;48.144;17.098;2022-11-14T01:25:40;62.83;;;25.83;;
17997;SDS011;9124;48.144;17.098;2022-11-14T01:29:35;53.30;;;23.50;;
17997;SDS011;9124;48.144;17.098;2022-11-14T01:33:31;49.65;;;25.17;;
17997;SDS011;9124;48.144;17.098;2022-11-14T01:37:25;54.40;;;24.50;;
17997;SDS011;9124;48.144;17.098;2022-11-14T01:41:20;49.88;;;25.20;;
17997;SDS011;9124;48.144;17.098;2022-11-14T01:49:50;39.78;;;22.98;;
17997;SDS011;9124;48.144;17.098;2022-11-14T01:53:50;35.40;;;21.63;;
17997;SDS011;9124;48.144;17.098;2022-11-14T01:57:47;42.70;;;22.92;;
17997;SDS011;9124;48.144;17.098;2022-11-14T02:01:44;35.28;;;21.83;;
17997;SDS011;9124;48.144;17.098;2022-11-14T02:05:42;39.65;;;22.17;;
17997;SDS011;9124;48.144;17.098;2022-11-14T02:09:40;39.35;;;21.70;;
17997;SDS011;9124;48.144;17.098;2022-11-14T02:13:38;46.75;;;22.60;;
17997;SDS011;9124;48.144;17.098;2022-11-14T02:17:33;41.88;;;22.45;;
17997;SDS011;9124;48.144;17.098;2022-11-14T02:21:28;42.75;;;22.35;;
17997;SDS011;9124;48.144;17.098;2022-11-14T02:25:24;43.58;;;24.13;;
17997;SDS011;9124;48.144;17.098;2022-11-14T02:29:18;42.25;;;24.33;;
17997;SDS011;9124;48.144;17.098;2022-11-14T02:33:14;48.08;;;23.20;;
17997;SDS011;9124;48.144;17.098;2022-11-14T02:37:09;42.15;;;23.27;;
17997;SDS011;9124;48.144;17.098;2022-11-14T02:41:04;41.45;;;22.20;;
17997;SDS011;9124;48.144;17.098;2022-11-14T02:44:59;42.33;;;22.42;;
17997;SDS011;9124;48.144;17.098;2022-11-14T02:48:54;50.78;;;24.05;;
17997;SDS011;9124;48.144;17.098;2022-11-14T02:52:48;43.08;;;24.30;;
17997;SDS011;9124;48.144;17.098;2022-11-14T02:56:43;36.17;;;22.77;;
17997;SDS011;9124;48.144;17.098;2022-11-14T03:00:38;36.25;;;23.08;;
17997;SDS011;9124;48.144;17.098;2022-11-14T03:04:33;38.20;;;23.60;;
17997;SDS011;9124;48.144;17.098;2022-11-14T03:08:28;40.60;;;22.70;;
17997;SDS011;9124;48.144;17.098;2022-11-14T03:12:23;33.70;;;20.27;;
17997;SDS011;9124;48.144;17.098;2022-11-14T03:16:18;39.58;;;21.23;;
17997;SDS011;9124;48.144;17.098;2022-11-14T03:20:13;33.67;;;21.85;;
17997;SDS011;9124;48.144;17.098;2022-11-14T03:24:08;40.50;;;23.15;;
17997;SDS011;9124;48.144;17.098;2022-11-14T03:28:03;43.63;;;23.20;;
17997;SDS011;9124;48.144;17.098;2022-11-14T03:31:58;44.53;;;23.40;;
17997;SDS011;9124;48.144;17.098;2022-11-14T03:35:52;40.47;;;24.02;;
17997;SDS011;9124;48.144;17.098;2022-11-14T03:39:47;38.90;;;24.00;;
17997;SDS011;9124;48.144;17.098;2022-11-14T03:43:42;41.47;;;25.35;;
17997;SDS011;9124;48.144;17.098;2022-11-14T03:47:37;41.30;;;26.25;;
17997;SDS011;9124;48.144;17.098;2022-11-14T03:51:32;44.38;;;25.65;;
17997;SDS011;9124;48.144;17.098;2022-11-14T03:55:27;43.45;;;24.23;;
17997;SDS011;9124;48.144;17.098;2022-11-14T03:59:22;43.25;;;24.73;;
17997;SDS011;9124;48.144;17.098;2022-11-14T04:03:17;43.67;;;25.70;;
17997;SDS011;9124;48.144;17.098;2022-11-14T04:07:11;39.42;;;24.48;;
17997;SDS011;9124;48.144;17.098;2022-11-14T04:11:06;44.42;;;25.65;;
17997;SDS011;9124;48.144;17.098;2022-11-14T04:15:01;37.90;;;24.08;;
17997;SDS011;9124;48.144;17.098;2022-11-14T04:18:56;39.90;;;24.33;;
17997;SDS011;9124;48.144;17.098;2022-11-14T04:22:51;37.83;;;22.75;;
17997;SDS011;9124;48.144;17.098;2022-11-14T04:26:46;37.83;;;22.38;;
17997;SDS011;9124;48.144;17.098;2022-11-14T04:30:40;38.72;;;22.63;;
17997;SDS011;9124;48.144;17.098;2022-11-14T04:34:35;34.15;;;22.15;;
17997;SDS011;9124;48.144;17.098;2022-11-14T04:38:30;32.60;;;21.25;;
17997;SDS011;9124;48.144;17.098;2022-11-14T04:42:25;33.97;;;20.88;;
17997;SDS011;9124;48.144;17.098;2022-11-14T04:46:20;34.08;;;21.67;;
17997;SDS011;9124;48.144;17.098;2022-11-14T04:50:14;46.42;;;22.38;;
17997;SDS011;9124;48.144;17.098;2022-11-14T04:54:09;37.45;;;21.67;;
17997;SDS011;9124;48.144;17.098;2022-11-14T04:58:04;31.67;;;20.75;;
17997;SDS011;9124;48.144;17.098;2022-11-14T05:01:59;37.40;;;21.70;;
17997;SDS011;9124;48.144;17.098;2022-11-14T05:05:58;35.55;;;21.65;;
17997;SDS011;9124;48.144;17.098;2022-11-14T05:09:54;33.60;;;21.80;;
17997;SDS011;9124;48.144;17.098;2022-11-14T05:13:49;32.10;;;21.55;;
17997;SDS011;9124;48.144;17.098;2022-11-14T05:17:44;33.90;;;22.38;;
17997;SDS011;9124;48.144;17.098;2022-11-14T05:21:39;38.97;;;21.88;;
17997;SDS011;9124;48.144;17.098;2022-11-14T05:25:34;35.80;;;21.45;;
17997;SDS011;9124;48.144;17.098;2022-11-14T05:29:31;36.83;;;21.80;;
17997;SDS011;9124;48.144;17.098;2022-11-14T05:33:25;32.53;;;21.75;;
17997;SDS011;9124;48.144;17.098;2022-11-14T05:37:21;38.13;;;23.00;;
17997;SDS011;9124;48.144;17.098;2022-11-14T05:41:16;28.88;;;19.95;;
17997;SDS011;9124;48.144;17.098;2022-11-14T05:45:15;41.17;;;22.15;;
17997;SDS011;9124;48.144;17.098;2022-11-14T05:49:10;28.90;;;20.27;;
17997;SDS011;9124;48.144;17.098;2022-11-14T05:53:05;36.75;;;20.77;;
17997;SDS011;9124;48.144;17.098;2022-11-14T05:57:00;34.13;;;20.58;;
17997;SDS011;9124;48.144;17.098;2022-11-14T06:01:02;34.97;;;21.58;;
17997;SDS011;9124;48.144;17.098;2022-11-14T06:05:02;33.70;;;20.90;;
17997;SDS011;9124;48.144;17.098;2022-11-14T06:08:58;35.53;;;20.45;;
17997;SDS011;9124;48.144;17.098;2022-11-14T06:12:53;32.15;;;19.67;;
17997;SDS011;9124;48.144;17.098;2022-11-14T06:16:47;36.30;;;20.52;;
17997;SDS011;9124;48.144;17.098;2022-11-14T06:20:43;30.50;;;20.50;;
17997;SDS011;9124;48.144;17.098;2022-11-14T06:24:37;34.55;;;21.65;;
17997;SDS011;9124;48.144;17.098;2022-11-14T06:28:33;33.33;;;19.95;;
17997;SDS011;9124;48.144;17.098;2022-11-14T06:32:28;32.97;;;20.50;;
17997;SDS011;9124;48.144;17.098;2022-11-14T06:36:23;33.38;;;20.60;;
17997;SDS011;9124;48.144;17.098;2022-11-14T06:40:17;32.05;;;20.77;;
17997;SDS011;9124;48.144;17.098;2022-11-14T06:44:13;35.38;;;19.88;;
17997;SDS011;9124;48.144;17.098;2022-11-14T06:48:07;31.92;;;20.73;;
17997;SDS011;9124;48.144;17.098;2022-11-14T06:52:02;34.95;;;21.20;;
17997;SDS011;9124;48.144;17.098;2022-11-14T06:55:59;35.63;;;21.85;;
17997;SDS011;9124;48.144;17.098;2022-11-14T07:00:01;34.90;;;19.40;;
17997;SDS011;9124;48.144;17.098;2022-11-14T07:03:58;35.35;;;18.85;;
17997;SDS011;9124;48.144;17.098;2022-11-14T07:07:56;34.47;;;19.85;;
17997;SDS011;9124;48.144;17.098;2022-11-14T07:11:51;35.92;;;20.38;;
17997;SDS011;9124;48.144;17.098;2022-11-14T07:15:52;33.13;;;20.02;;
17997;SDS011;9124;48.144;17.098;2022-11-14T07:19:47;28.70;;;20.15;;
17997;SDS011;9124;48.144;17.098;2022-11-14T07:23:41;34.55;;;19.67;;
17997;SDS011;9124;48.144;17.098;2022-11-14T07:27:36;27.77;;;18.10;;
17997;SDS011;9124;48.144;17.098;2022-11-14T07:31:31;32.88;;;18.85;;
17997;SDS011;9124;48.144;17.098;2022-11-14T07:35:26;26.77;;;18.33;;
17997;SDS011;9124;48.144;17.098;2022-11-14T07:39:21;26.88;;;18.65;;
17997;SDS011;9124;48.144;17.098;2022-11-14T07:43:16;29.77;;;18.92;;
17997;SDS011;9124;48.144;17.098;2022-11-14T07:47:13;26.92;;;17.05;;
17997;SDS011;9124;48.144;17.098;2022-11-14T07:51:18;31.60;;;18.77;;
17997;SDS011;9124;48.144;17.098;2022-11-14T07:55:14;25.25;;;17.52;;
17997;SDS011;9124;48.144;17.098;2022-11-14T07:59:09;27.50;;;18.67;;
17997;SDS011;9124;48.144;17.098;2022-11-14T08:03:05;27.25;;;17.17;;
17997;SDS011;9124;48.144;17.098;2022-11-14T08:07:01;31.52;;;18.35;;
17997;SDS011;9124;48.144;17.098;2022-11-14T08:10:56;33.00;;;19.50;;
17997;SDS011;9124;48.144;17.098;2022-11-14T08:14:52;28.13;;;17.80;;
17997;SDS011;9124;48.144;17.098;2022-11-14T08:18:47;27.15;;;17.73;;
17997;SDS011;9124;48.144;17.098;2022-11-14T08:22:42;32.10;;;17.98;;
17997;SDS011;9124;48.144;17.098;2022-11-14T08:26:37;27.48;;;17.65;;
17997;SDS011;9124;48.144;17.098;2022-11-14T08:30:32;27.20;;;17.05;;
17997;SDS011;9124;48.144;17.098;2022-11-14T08:34:27;25.55;;;16.77;;
17997;SDS011;9124;48.144;17.098;2022-11-14T08:38:23;27.08;;;16.55;;
17997;SDS011;9124;48.144;17.098;2022-11-14T08:42:19;22.65;;;15.52;;
17997;SDS011;9124;48.144;17.098;2022-11-14T08:46:15;29.15;;;15.18;;
17997;SDS011;9124;48.144;17.098;2022-11-14T08:50:10;24.50;;;15.77;;
17997;SDS011;9124;48.144;17.098;2022-11-14T08:54:05;20.95;;;15.73;;
17997;SDS011;9124;48.144;17.098;2022-11-14T08:58:01;20.15;;;14.60;;
17997;SDS011;9124;48.144;17.098;2022-11-14T09:01:56;22.10;;;14.57;;
17997;SDS011;9124;48.144;17.098;2022-11-14T09:05:51;23.00;;;15.30;;
17997;SDS011;9124;48.144;17.098;2022-11-14T09:09:46;20.30;;;15.48;;
17997;SDS011;9124;48.144;17.098;2022-11-14T09:13:41;22.17;;;15.57;;
17997;SDS011;9124;48.144;17.098;2022-11-14T09:17:36;20.67;;;14.48;;
17997;SDS011;9124;48.144;17.098;2022-11-14T09:21:31;21.40;;;14.38;;
17997;SDS011;9124;48.144;17.098;2022-11-14T09:25:26;20.23;;;15.00;;
17997;SDS011;9124;48.144;17.098;2022-11-14T09:29:23;20.35;;;15.30;;
17997;SDS011;9124;48.144;17.098;2022-11-14T09:33:18;16.77;;;13.55;;
17997;SDS011;9124;48.144;17.098;2022-11-14T09:37:13;19.38;;;14.10;;
17997;SDS011;9124;48.144;17.098;2022-11-14T09:45:18;14.65;;;13.13;;
17997;SDS011;9124;48.144;17.098;2022-11-14T09:49:28;14.02;;;12.65;;
17997;SDS011;9124;48.144;17.098;2022-11-14T09:53:32;14.52;;;12.98;;
17997;SDS011;9124;48.144;17.098;2022-11-14T09:57:38;14.18;;;12.77;;
17997;SDS011;9124;48.144;17.098;2022-11-14T10:01:40;14.32;;;13.20;;
17997;SDS011;9124;48.144;17.098;2022-11-14T10:10:27;12.57;;;11.35;;
17997;SDS011;9124;48.144;17.098;2022-11-14T10:15:20;13.63;;;12.32;;
17997;SDS011;9124;48.144;17.098;2022-11-14T10:40:45;13.88;;;11.10;;
17997;SDS011;9124;48.144;17.098;2022-11-14T10:44:53;12.13;;;11.05;;
17997;SDS011;9124;48.144;17.098;2022-11-14T10:49:20;14.48;;;13.07;;
17997;SDS011;9124;48.144;17.098;2022-11-14T10:57:52;12.35;;;11.05;;
17997;SDS011;9124;48.144;17.098;2022-11-14T11:05:51;15.57;;;11.82;;
17997;SDS011;9124;48.144;17.098;2022-11-14T11:09:57;17.17;;;12.40;;
17997;SDS011;9124;48.144;17.098;2022-11-14T11:14:16;15.30;;;11.60;;
17997;SDS011;9124;48.144;17.098;2022-11-14T11:18:29;15.30;;;12.50;;
17997;SDS011;9124;48.144;17.098;2022-11-14T11:22:28;16.25;;;12.23;;
17997;SDS011;9124;48.144;17.098;2022-11-14T11:26:31;15.40;;;11.90;;
17997;SDS011;9124;48.144;17.098;2022-11-14T11:30:26;16.15;;;13.13;;
17997;SDS011;9124;48.144;17.098;2022-11-14T11:34:22;16.75;;;11.73;;
17997;SDS011;9124;48.144;17.098;2022-11-14T11:38:20;14.77;;;11.15;;
17997;SDS011;9124;48.144;17.098;2022-11-14T11:42:21;14.07;;;12.15;;
17997;SDS011;9124;48.144;17.098;2022-11-14T11:50:25;17.15;;;12.75;;
17997;SDS011;9124;48.144;17.098;2022-11-14T11:54:23;18.70;;;12.23;;
17997;SDS011;9124;48.144;17.098;2022-11-14T11:58:34;22.33;;;13.10;;
17997;SDS011;9124;48.144;17.098;2022-11-14T12:02:39;16.92;;;12.90;;
17997;SDS011;9124;48.144;17.098;2022-11-14T12:06:39;16.65;;;13.00;;
17997;SDS011;9124;48.144;17.098;2022-11-14T12:10:44;20.08;;;12.50;;
17997;SDS011;9124;48.144;17.098;2022-11-14T12:14:43;15.63;;;13.07;;
17997;SDS011;9124;48.144;17.098;2022-11-14T12:28:33;21.10;;;13.30;;
17997;SDS011;9124;48.144;17.098;2022-11-14T12:32:57;15.05;;;13.27;;
17997;SDS011;9124;48.144;17.098;2022-11-14T12:36:56;17.90;;;13.85;;
17997;SDS011;9124;48.144;17.098;2022-11-14T12:40:56;16.25;;;12.50;;
17997;SDS011;9124;48.144;17.098;2022-11-14T12:44:53;14.88;;;13.00;;
17997;SDS011;9124;48.144;17.098;2022-11-14T12:48:48;19.05;;;13.75;;
17997;SDS011;9124;48.144;17.098;2022-11-14T12:56:50;16.00;;;13.50;;
17997;SDS011;9124;48.144;17.098;2022-11-14T13:00:57;20.95;;;14.10;;
17997;SDS011;9124;48.144;17.098;2022-11-14T13:13:28;18.95;;;14.13;;
17997;SDS011;9124;48.144;17.098;2022-11-14T13:17:42;22.20;;;14.07;;
17997;SDS011;9124;48.144;17.098;2022-11-14T13:35:03;19.27;;;14.50;;
17997;SDS011;9124;48.144;17.098;2022-11-14T13:51:52;20.33;;;14.43;;
17997;SDS011;9124;48.144;17.098;2022-11-14T13:55:52;25.40;;;15.25;;
17997;SDS011;9124;48.144;17.098;2022-11-14T14:00:04;22.30;;;13.90;;
17997;SDS011;9124;48.144;17.098;2022-11-14T14:08:40;22.05;;;15.48;;
17997;SDS011;9124;48.144;17.098;2022-11-14T14:13:40;23.17;;;15.48;;
17997;SDS011;9124;48.144;17.098;2022-11-14T14:17:34;22.20;;;16.23;;
17997;SDS011;9124;48.144;17.098;2022-11-14T14:22:07;20.55;;;15.55;;
17997;SDS011;9124;48.144;17.098;2022-11-14T14:26:23;26.90;;;17.90;;
17997;SDS011;9124;48.144;17.098;2022-11-14T14:31:08;26.95;;;18.92;;
17997;SDS011;9124;48.144;17.098;2022-11-14T14:35:22;32.00;;;18.73;;
17997;SDS011;9124;48.144;17.098;2022-11-14T14:39:21;29.58;;;18.00;;
17997;SDS011;9124;48.144;17.098;2022-11-14T14:43:29;29.98;;;18.02;;
17997;SDS011;9124;48.144;17.098;2022-11-14T14:47:35;29.23;;;18.73;;
17997;SDS011;9124;48.144;17.098;2022-11-14T14:51:36;25.42;;;18.65;;
17997;SDS011;9124;48.144;17.098;2022-11-14T14:55:33;29.98;;;19.25;;
17997;SDS011;9124;48.144;17.098;2022-11-14T14:59:29;27.95;;;18.90;;
17997;SDS011;9124;48.144;17.098;2022-11-14T15:03:46;28.58;;;19.75;;
17997;SDS011;9124;48.144;17.098;2022-11-14T15:08:03;34.67;;;21.50;;
17997;SDS011;9124;48.144;17.098;2022-11-14T15:11:58;36.78;;;21.95;;
17997;SDS011;9124;48.144;17.098;2022-11-14T15:15:54;35.95;;;20.75;;
17997;SDS011;9124;48.144;17.098;2022-11-14T15:19:52;69.78;;;22.35;;
17997;SDS011;9124;48.144;17.098;2022-11-14T15:23:56;82.63;;;20.15;;
17997;SDS011;9124;48.144;17.098;2022-11-14T15:27:58;40.08;;;21.83;;
17997;SDS011;9124;48.144;17.098;2022-11-14T15:31:54;39.50;;;21.73;;
17997;SDS011;9124;48.144;17.098;2022-11-14T15:36:05;93.38;;;19.90;;
17997;SDS011;9124;48.144;17.098;2022-11-14T15:40:23;35.70;;;20.95;;
17997;SDS011;9124;48.144;17.098;2022-11-14T15:44:29;43.75;;;22.25;;
17997;SDS011;9124;48.144;17.098;2022-11-14T15:48:25;72.63;;;20.55;;
17997;SDS011;9124;48.144;17.098;2022-11-14T15:53:13;34.00;;;20.80;;
17997;SDS011;9124;48.144;17.098;2022-11-14T15:57:13;54.05;;;22.92;;
17997;SDS011;9124;48.144;17.098;2022-11-14T16:01:12;47.13;;;21.73;;
17997;SDS011;9124;48.144;17.098;2022-11-14T16:05:15;38.90;;;21.73;;
17997;SDS011;9124;48.144;17.098;2022-11-14T16:09:14;93.88;;;20.77;;
17997;SDS011;9124;48.144;17.098;2022-11-14T16:13:14;51.50;;;19.15;;
17997;SDS011;9124;48.144;17.098;2022-11-14T16:17:12;41.60;;;20.92;;
17997;SDS011;9124;48.144;17.098;2022-11-14T16:21:10;37.10;;;21.85;;
17997;SDS011;9124;48.144;17.098;2022-11-14T16:25:16;130.95;;;21.45;;
17997;SDS011;9124;48.144;17.098;2022-11-14T16:29:13;64.90;;;22.17;;
17997;SDS011;9124;48.144;17.098;2022-11-14T16:33:09;68.90;;;21.20;;
17997;SDS011;9124;48.144;17.098;2022-11-14T16:37:04;42.28;;;22.60;;
17997;SDS011;9124;48.144;17.098;2022-11-14T16:41:00;41.53;;;20.58;;
17997;SDS011;9124;48.144;17.098;2022-11-14T16:44:58;44.28;;;22.90;;
17997;SDS011;9124;48.144;17.098;2022-11-14T16:48:55;41.13;;;21.10;;
17997;SDS011;9124;48.144;17.098;2022-11-14T16:52:50;38.28;;;21.25;;
17997;SDS011;9124;48.144;17.098;2022-11-14T16:56:45;36.63;;;21.35;;
17997;SDS011;9124;48.144;17.098;2022-11-14T17:00:41;37.22;;;21.10;;
17997;SDS011;9124;48.144;17.098;2022-11-14T17:04:37;39.78;;;21.60;;
17997;SDS011;9124;48.144;17.098;2022-11-14T17:08:32;39.47;;;21.52;;
17997;SDS011;9124;48.144;17.098;2022-11-14T17:12:27;40.97;;;22.73;;
17997;SDS011;9124;48.144;17.098;2022-11-14T17:16:22;40.83;;;22.55;;
17997;SDS011;9124;48.144;17.098;2022-11-14T17:20:18;44.40;;;23.70;;
17997;SDS011;9124;48.144;17.098;2022-11-14T17:24:12;36.53;;;22.13;;
17997;SDS011;9124;48.144;17.098;2022-11-14T17:28:08;41.60;;;23.10;;
17997;SDS011;9124;48.144;17.098;2022-11-14T17:32:03;40.33;;;23.75;;
17997;SDS011;9124;48.144;17.098;2022-11-14T17:36:05;41.67;;;23.35;;
17997;SDS011;9124;48.144;17.098;2022-11-14T17:40:01;47.45;;;23.65;;
17997;SDS011;9124;48.144;17.098;2022-11-14T17:43:56;40.15;;;23.92;;
17997;SDS011;9124;48.144;17.098;2022-11-14T17:47:54;99.70;;;19.23;;
17997;SDS011;9124;48.144;17.098;2022-11-14T17:51:50;164.40;;;20.88;;
17997;SDS011;9124;48.144;17.098;2022-11-14T17:55:44;130.10;;;22.08;;
17997;SDS011;9124;48.144;17.098;2022-11-14T17:59:40;109.80;;;22.30;;
17997;SDS011;9124;48.144;17.098;2022-11-14T18:03:35;67.88;;;23.80;;
17997;SDS011;9124;48.144;17.098;2022-11-14T18:07:29;71.68;;;26.58;;
17997;SDS011;9124;48.144;17.098;2022-11-14T18:11:26;67.20;;;27.30;;
17997;SDS011;9124;48.144;17.098;2022-11-14T18:15:20;73.00;;;24.55;;
17997;SDS011;9124;48.144;17.098;2022-11-14T18:19:16;60.03;;;26.02;;
17997;SDS011;9124;48.144;17.098;2022-11-14T18:23:10;65.70;;;25.25;;
17997;SDS011;9124;48.144;17.098;2022-11-14T18:27:06;67.72;;;23.00;;
17997;SDS011;9124;48.144;17.098;2022-11-14T18:31:01;57.72;;;24.67;;
17997;SDS011;9124;48.144;17.098;2022-11-14T18:34:57;59.95;;;26.75;;
17997;SDS011;9124;48.144;17.098;2022-11-14T18:38:52;70.40;;;24.60;;
17997;SDS011;9124;48.144;17.098;2022-11-14T18:42:50;60.35;;;24.00;;
17997;SDS011;9124;48.144;17.098;2022-11-14T18:46:45;55.53;;;21.23;;
17997;SDS011;9124;48.144;17.098;2022-11-14T18:50:40;76.18;;;25.83;;
17997;SDS011;9124;48.144;17.098;2022-11-14T18:54:34;83.07;;;26.88;;
17997;SDS011;9124;48.144;17.098;2022-11-14T18:58:30;61.30;;;26.10;;
17997;SDS011;9124;48.144;17.098;2022-11-14T19:02:25;98.82;;;28.30;;
17997;SDS011;9124;48.144;17.098;2022-11-14T19:06:20;89.68;;;27.42;;
17997;SDS011;9124;48.144;17.098;2022-11-14T19:10:15;70.30;;;26.70;;
17997;SDS011;9124;48.144;17.098;2022-11-14T19:14:10;90.57;;;24.70;;
17997;SDS011;9124;48.144;17.098;2022-11-14T19:18:05;85.30;;;24.27;;
17997;SDS011;9124;48.144;17.098;2022-11-14T19:22:02;59.75;;;26.40;;
17997;SDS011;9124;48.144;17.098;2022-11-14T19:26:00;81.15;;;27.05;;
17997;SDS011;9124;48.144;17.098;2022-11-14T19:29:56;87.43;;;24.65;;
17997;SDS011;9124;48.144;17.098;2022-11-14T19:33:51;70.93;;;26.13;;
17997;SDS011;9124;48.144;17.098;2022-11-14T19:37:46;138.38;;;26.55;;
17997;SDS011;9124;48.144;17.098;2022-11-14T19:41:41;93.78;;;25.05;;
17997;SDS011;9124;48.144;17.098;2022-11-14T19:45:37;122.05;;;24.15;;
17997;SDS011;9124;48.144;17.098;2022-11-14T19:49:31;138.52;;;24.17;;
17997;SDS011;9124;48.144;17.098;2022-11-14T19:53:27;141.75;;;24.65;;
17997;SDS011;9124;48.144;17.098;2022-11-14T19:57:22;120.05;;;22.92;;
17997;SDS011;9124;48.144;17.098;2022-11-14T20:01:21;120.40;;;25.73;;
17997;SDS011;9124;48.144;17.098;2022-11-14T20:05:20;99.75;;;25.73;;
17997;SDS011;9124;48.144;17.098;2022-11-14T20:09:15;109.10;;;24.08;;
17997;SDS011;9124;48.144;17.098;2022-11-14T20:13:10;101.32;;;28.13;;
17997;SDS011;9124;48.144;17.098;2022-11-14T20:17:07;132.07;;;28.13;;
17997;SDS011;9124;48.144;17.098;2022-11-14T20:21:03;192.75;;;28.85;;
17997;SDS011;9124;48.144;17.098;2022-11-14T20:24:59;137.25;;;27.45;;
17997;SDS011;9124;48.144;17.098;2022-11-14T20:28:54;76.05;;;25.67;;
17997;SDS011;9124;48.144;17.098;2022-11-14T20:32:49;103.03;;;27.95;;
17997;SDS011;9124;48.144;17.098;2022-11-14T20:36:44;193.80;;;30.35;;
17997;SDS011;9124;48.144;17.098;2022-11-14T20:40:40;130.18;;;31.40;;
17997;SDS011;9124;48.144;17.098;2022-11-14T20:44:35;198.27;;;32.97;;
17997;SDS011;9124;48.144;17.098;2022-11-14T20:48:31;133.80;;;35.63;;
17997;SDS011;9124;48.144;17.098;2022-11-14T20:52:27;139.15;;;32.40;;
17997;SDS011;9124;48.144;17.098;2022-11-14T20:56:22;117.05;;;30.27;;
17997;SDS011;9124;48.144;17.098;2022-11-14T21:00:18;159.02;;;30.85;;
17997;SDS011;9124;48.144;17.098;2022-11-14T21:04:13;162.98;;;26.90;;
17997;SDS011;9124;48.144;17.098;2022-11-14T21:08:08;124.28;;;26.30;;
17997;SDS011;9124;48.144;17.098;2022-11-14T21:12:03;121.25;;;25.67;;
17997;SDS011;9124;48.144;17.098;2022-11-14T21:15:59;102.10;;;27.02;;
17997;SDS011;9124;48.144;17.098;2022-11-14T21:19:56;106.50;;;26.60;;
17997;SDS011;9124;48.144;17.098;2022-11-14T21:23:51;116.93;;;27.52;;
17997;SDS011;9124;48.144;17.098;2022-11-14T21:27:47;73.07;;;26.23;;
17997;SDS011;9124;48.144;17.098;2022-11-14T21:31:43;89.78;;;25.13;;
17997;SDS011;9124;48.144;17.098;2022-11-14T21:35:39;80.32;;;24.48;;
17997;SDS011;9124;48.144;17.098;2022-11-14T21:39:34;70.35;;;23.20;;
17997;SDS011;9124;48.144;17.098;2022-11-14T21:43:30;67.10;;;23.20;;
17997;SDS011;9124;48.144;17.098;2022-11-14T21:47:25;74.20;;;24.20;;
17997;SDS011;9124;48.144;17.098;2022-11-14T21:51:20;59.53;;;23.75;;
17997;SDS011;9124;48.144;17.098;2022-11-14T21:55:19;60.83;;;21.85;;
17997;SDS011;9124;48.144;17.098;2022-11-14T21:59:14;61.08;;;23.27;;
17997;SDS011;9124;48.144;17.098;2022-11-14T22:03:17;77.57;;;22.80;;
17997;SDS011;9124;48.144;17.098;2022-11-14T22:07:31;63.67;;;20.23;;
17997;SDS011;9124;48.144;17.098;2022-11-14T22:11:26;53.53;;;20.90;;
17997;SDS011;9124;48.144;17.098;2022-11-14T22:15:21;45.50;;;19.85;;
17997;SDS011;9124;48.144;17.098;2022-11-14T22:19:16;41.40;;;19.77;;
17997;SDS011;9124;48.144;17.098;2022-11-14T22:23:11;45.63;;;20.77;;
17997;SDS011;9124;48.144;17.098;2022-11-14T22:27:06;56.67;;;22.20;;
17997;SDS011;9124;48.144;17.098;2022-11-14T22:31:14;49.72;;;22.10;;
17997;SDS011;9124;48.144;17.098;2022-11-14T22:35:11;50.38;;;22.45;;
17997;SDS011;9124;48.144;17.098;2022-11-14T22:39:05;50.72;;;22.52;;
17997;SDS011;9124;48.144;17.098;2022-11-14T22:43:01;46.03;;;23.17;;
17997;SDS011;9124;48.144;17.098;2022-11-14T22:46:55;42.30;;;21.52;;
17997;SDS011;9124;48.144;17.098;2022-11-14T22:50:57;51.10;;;22.42;;
17997;SDS011;9124;48.144;17.098;2022-11-14T22:54:57;55.50;;;22.17;;
17997;SDS011;9124;48.144;17.098;2022-11-14T22:58:52;48.25;;;23.95;;
17997;SDS011;9124;48.144;17.098;2022-11-14T23:02:50;57.10;;;23.88;;
17997;SDS011;9124;48.144;17.098;2022-11-14T23:06:46;53.38;;;23.85;;
17997;SDS011;9124;48.144;17.098;2022-11-14T23:10:42;55.58;;;23.20;;
17997;SDS011;9124;48.144;17.098;2022-11-14T23:14:38;61.88;;;24.63;;
17997;SDS011;9124;48.144;17.098;2022-11-14T23:18:33;59.25;;;26.75;;
17997;SDS011;9124;48.144;17.098;2022-11-14T23:22:28;60.53;;;26.17;;
17997;SDS011;9124;48.144;17.098;2022-11-14T23:26:24;62.80;;;27.17;;
17997;SDS011;9124;48.144;17.098;2022-11-14T23:30:20;60.75;;;25.02;;
17997;SDS011;9124;48.144;17.098;2022-11-14T23:34:15;47.95;;;23.25;;
17997;SDS011;9124;48.144;17.098;2022-11-14T23:38:10;48.25;;;22.67;;
17997;SDS011;9124;48.144;17.098;2022-11-14T23:42:07;48.10;;;23.63;;
17997;SDS011;9124;48.144;17.098;2022-11-14T23:46:01;35.25;;;21.80;;
17997;SDS011;9124;48.144;17.098;2022-11-14T23:49:56;40.58;;;20.88;;
17997;SDS011;9124;48.144;17.098;2022-11-14T23:53:51;40.25;;;20.08;;
17997;SDS011;9124;48.144;17.098;2022-11-14T23:57:46;43.83;;;22.30;;
